sensor_id;sensor_type;location;lat;lon;timestamp;P1;durP1;ratioP1;P2;durP2;ratioP2
76477;SDS011;65309;49.790;18.972;2023-05-02T00:02:47;4.60;;;1.52;;
76477;SDS011;65309;49.790;18.972;2023-05-02T00:07:51;2.65;;;1.60;;
76477;SDS011;65309;49.790;18.972;2023-05-02T00:12:53;2.30;;;1.60;;
76477;SDS011;65309;49.790;18.972;2023-05-02T00:17:55;1.90;;;1.23;;
76477;SDS011;65309;49.790;18.972;2023-05-02T00:22:58;2.08;;;1.60;;
76477;SDS011;65309;49.790;18.972;2023-05-02T00:28:00;2.08;;;1.75;;
76477;SDS011;65309;49.790;18.972;2023-05-02T00:33:02;3.33;;;1.92;;
76477;SDS011;65309;49.790;18.972;2023-05-02T00:38:08;1.10;;;1.00;;
76477;SDS011;65309;49.790;18.972;2023-05-02T00:43:11;1.75;;;1.10;;
76477;SDS011;65309;49.790;18.972;2023-05-02T00:48:13;2.25;;;1.50;;
76477;SDS011;65309;49.790;18.972;2023-05-02T00:53:16;3.00;;;1.60;;
76477;SDS011;65309;49.790;18.972;2023-05-02T00:58:18;1.90;;;1.40;;
76477;SDS011;65309;49.790;18.972;2023-05-02T01:03:25;3.00;;;1.60;;
76477;SDS011;65309;49.790;18.972;2023-05-02T01:08:40;3.30;;;1.60;;
76477;SDS011;65309;49.790;18.972;2023-05-02T01:13:47;2.28;;;1.60;;
76477;SDS011;65309;49.790;18.972;2023-05-02T01:18:53;2.35;;;1.50;;
76477;SDS011;65309;49.790;18.972;2023-05-02T01:24:02;4.40;;;1.80;;
76477;SDS011;65309;49.790;18.972;2023-05-02T01:29:08;2.13;;;1.48;;
76477;SDS011;65309;49.790;18.972;2023-05-02T01:34:13;4.90;;;1.50;;
76477;SDS011;65309;49.790;18.972;2023-05-02T01:39:17;2.47;;;1.40;;
76477;SDS011;65309;49.790;18.972;2023-05-02T01:44:23;1.52;;;1.30;;
76477;SDS011;65309;49.790;18.972;2023-05-02T01:49:26;2.42;;;1.55;;
76477;SDS011;65309;49.790;18.972;2023-05-02T01:54:30;2.28;;;1.67;;
76477;SDS011;65309;49.790;18.972;2023-05-02T01:59:35;3.08;;;1.50;;
76477;SDS011;65309;49.790;18.972;2023-05-02T02:04:41;1.50;;;1.15;;
76477;SDS011;65309;49.790;18.972;2023-05-02T02:09:44;3.53;;;1.40;;
76477;SDS011;65309;49.790;18.972;2023-05-02T02:14:48;2.97;;;1.20;;
76477;SDS011;65309;49.790;18.972;2023-05-02T02:19:56;2.33;;;1.30;;
76477;SDS011;65309;49.790;18.972;2023-05-02T02:25:04;2.10;;;1.42;;
76477;SDS011;65309;49.790;18.972;2023-05-02T02:30:10;2.70;;;1.30;;
76477;SDS011;65309;49.790;18.972;2023-05-02T02:35:12;1.60;;;1.40;;
76477;SDS011;65309;49.790;18.972;2023-05-02T02:40:16;1.40;;;1.05;;
76477;SDS011;65309;49.790;18.972;2023-05-02T02:45:29;1.48;;;1.20;;
76477;SDS011;65309;49.790;18.972;2023-05-02T02:50:37;1.75;;;1.35;;
76477;SDS011;65309;49.790;18.972;2023-05-02T02:55:45;2.15;;;1.45;;
76477;SDS011;65309;49.790;18.972;2023-05-02T03:00:54;1.88;;;1.50;;
76477;SDS011;65309;49.790;18.972;2023-05-02T03:05:57;1.45;;;1.13;;
76477;SDS011;65309;49.790;18.972;2023-05-02T03:11:00;3.00;;;1.35;;
76477;SDS011;65309;49.790;18.972;2023-05-02T03:16:22;1.88;;;1.08;;
76477;SDS011;65309;49.790;18.972;2023-05-02T03:21:32;2.15;;;1.42;;
76477;SDS011;65309;49.790;18.972;2023-05-02T03:26:35;4.85;;;1.67;;
76477;SDS011;65309;49.790;18.972;2023-05-02T03:31:38;2.35;;;1.40;;
76477;SDS011;65309;49.790;18.972;2023-05-02T03:36:40;2.80;;;1.52;;
76477;SDS011;65309;49.790;18.972;2023-05-02T03:41:42;2.20;;;1.38;;
76477;SDS011;65309;49.790;18.972;2023-05-02T03:46:46;1.88;;;1.20;;
76477;SDS011;65309;49.790;18.972;2023-05-02T03:51:48;3.90;;;1.77;;
76477;SDS011;65309;49.790;18.972;2023-05-02T03:56:52;2.83;;;1.50;;
76477;SDS011;65309;49.790;18.972;2023-05-02T04:01:55;4.30;;;1.52;;
76477;SDS011;65309;49.790;18.972;2023-05-02T04:06:57;1.13;;;0.98;;
76477;SDS011;65309;49.790;18.972;2023-05-02T04:11:59;1.20;;;0.90;;
76477;SDS011;65309;49.790;18.972;2023-05-02T04:22:10;1.55;;;1.38;;
76477;SDS011;65309;49.790;18.972;2023-05-02T04:27:12;2.75;;;1.80;;
76477;SDS011;65309;49.790;18.972;2023-05-02T04:32:17;2.72;;;1.80;;
76477;SDS011;65309;49.790;18.972;2023-05-02T04:37:19;2.22;;;1.45;;
76477;SDS011;65309;49.790;18.972;2023-05-02T04:47:25;2.05;;;1.65;;
76477;SDS011;65309;49.790;18.972;2023-05-02T04:52:27;2.38;;;1.73;;
76477;SDS011;65309;49.790;18.972;2023-05-02T04:57:30;3.05;;;2.05;;
76477;SDS011;65309;49.790;18.972;2023-05-02T05:02:33;5.20;;;1.90;;
76477;SDS011;65309;49.790;18.972;2023-05-02T05:07:36;2.75;;;1.50;;
76477;SDS011;65309;49.790;18.972;2023-05-02T05:12:38;2.90;;;1.88;;
76477;SDS011;65309;49.790;18.972;2023-05-02T05:17:41;2.13;;;1.55;;
76477;SDS011;65309;49.790;18.972;2023-05-02T05:22:43;2.42;;;1.48;;
76477;SDS011;65309;49.790;18.972;2023-05-02T05:27:45;2.20;;;1.48;;
76477;SDS011;65309;49.790;18.972;2023-05-02T05:32:49;3.17;;;1.90;;
76477;SDS011;65309;49.790;18.972;2023-05-02T05:37:51;2.90;;;1.60;;
76477;SDS011;65309;49.790;18.972;2023-05-02T05:42:53;2.17;;;1.65;;
76477;SDS011;65309;49.790;18.972;2023-05-02T05:47:57;2.40;;;1.80;;
76477;SDS011;65309;49.790;18.972;2023-05-02T05:52:59;2.10;;;1.42;;
76477;SDS011;65309;49.790;18.972;2023-05-02T05:58:02;3.03;;;1.73;;
76477;SDS011;65309;49.790;18.972;2023-05-02T06:08:10;2.30;;;1.70;;
76477;SDS011;65309;49.790;18.972;2023-05-02T06:13:12;2.35;;;1.35;;
76477;SDS011;65309;49.790;18.972;2023-05-02T06:18:16;3.10;;;1.90;;
76477;SDS011;65309;49.790;18.972;2023-05-02T06:23:18;3.70;;;1.90;;
76477;SDS011;65309;49.790;18.972;2023-05-02T06:33:23;3.47;;;1.90;;
76477;SDS011;65309;49.790;18.972;2023-05-02T06:38:25;2.75;;;1.50;;
76477;SDS011;65309;49.790;18.972;2023-05-02T06:43:27;2.65;;;1.80;;
76477;SDS011;65309;49.790;18.972;2023-05-02T06:48:30;4.18;;;1.85;;
76477;SDS011;65309;49.790;18.972;2023-05-02T06:53:32;2.55;;;1.60;;
76477;SDS011;65309;49.790;18.972;2023-05-02T07:03:38;3.15;;;2.13;;
76477;SDS011;65309;49.790;18.972;2023-05-02T07:08:40;2.72;;;1.83;;
76477;SDS011;65309;49.790;18.972;2023-05-02T07:13:42;3.42;;;1.98;;
76477;SDS011;65309;49.790;18.972;2023-05-02T07:18:45;3.05;;;1.98;;
76477;SDS011;65309;49.790;18.972;2023-05-02T07:23:47;2.55;;;2.10;;
76477;SDS011;65309;49.790;18.972;2023-05-02T07:28:49;5.55;;;2.13;;
76477;SDS011;65309;49.790;18.972;2023-05-02T07:33:52;4.53;;;2.33;;
76477;SDS011;65309;49.790;18.972;2023-05-02T07:38:55;4.00;;;2.13;;
76477;SDS011;65309;49.790;18.972;2023-05-02T07:43:57;2.90;;;1.90;;
76477;SDS011;65309;49.790;18.972;2023-05-02T07:54:02;5.60;;;3.28;;
76477;SDS011;65309;49.790;18.972;2023-05-02T07:59:15;3.53;;;2.50;;
76477;SDS011;65309;49.790;18.972;2023-05-02T08:04:18;3.50;;;2.42;;
76477;SDS011;65309;49.790;18.972;2023-05-02T08:09:20;4.30;;;3.38;;
76477;SDS011;65309;49.790;18.972;2023-05-02T08:14:22;3.03;;;2.35;;
76477;SDS011;65309;49.790;18.972;2023-05-02T08:19:26;3.55;;;2.38;;
76477;SDS011;65309;49.790;18.972;2023-05-02T08:24:28;5.18;;;3.10;;
76477;SDS011;65309;49.790;18.972;2023-05-02T08:29:31;4.55;;;2.78;;
76477;SDS011;65309;49.790;18.972;2023-05-02T08:39:37;5.97;;;2.50;;
76477;SDS011;65309;49.790;18.972;2023-05-02T08:49:42;3.05;;;2.50;;
76477;SDS011;65309;49.790;18.972;2023-05-02T08:54:46;3.17;;;2.33;;
76477;SDS011;65309;49.790;18.972;2023-05-02T08:59:49;3.00;;;1.98;;
76477;SDS011;65309;49.790;18.972;2023-05-02T09:04:53;3.08;;;2.03;;
76477;SDS011;65309;49.790;18.972;2023-05-02T09:09:59;3.65;;;2.40;;
76477;SDS011;65309;49.790;18.972;2023-05-02T09:15:10;4.88;;;2.50;;
76477;SDS011;65309;49.790;18.972;2023-05-02T09:20:15;2.83;;;2.05;;
76477;SDS011;65309;49.790;18.972;2023-05-02T09:25:18;3.35;;;2.38;;
76477;SDS011;65309;49.790;18.972;2023-05-02T09:30:22;3.30;;;2.05;;
76477;SDS011;65309;49.790;18.972;2023-05-02T09:35:26;3.35;;;2.50;;
76477;SDS011;65309;49.790;18.972;2023-05-02T09:40:29;4.60;;;3.00;;
76477;SDS011;65309;49.790;18.972;2023-05-02T09:45:33;6.57;;;2.80;;
76477;SDS011;65309;49.790;18.972;2023-05-02T09:50:36;3.30;;;2.50;;
76477;SDS011;65309;49.790;18.972;2023-05-02T09:55:39;3.75;;;2.65;;
76477;SDS011;65309;49.790;18.972;2023-05-02T10:00:42;4.15;;;2.53;;
76477;SDS011;65309;49.790;18.972;2023-05-02T10:05:46;3.10;;;2.47;;
76477;SDS011;65309;49.790;18.972;2023-05-02T10:10:52;4.03;;;2.45;;
76477;SDS011;65309;49.790;18.972;2023-05-02T10:15:57;5.07;;;2.90;;
76477;SDS011;65309;49.790;18.972;2023-05-02T10:21:04;3.10;;;2.38;;
76477;SDS011;65309;49.790;18.972;2023-05-02T10:31:13;3.92;;;2.25;;
76477;SDS011;65309;49.790;18.972;2023-05-02T10:36:19;3.05;;;2.05;;
76477;SDS011;65309;49.790;18.972;2023-05-02T10:41:23;3.83;;;2.75;;
76477;SDS011;65309;49.790;18.972;2023-05-02T10:46:31;5.32;;;3.20;;
76477;SDS011;65309;49.790;18.972;2023-05-02T10:51:36;4.20;;;3.00;;
76477;SDS011;65309;49.790;18.972;2023-05-02T11:07:50;7.65;;;4.20;;
76477;SDS011;65309;49.790;18.972;2023-05-02T11:13:49;5.07;;;2.67;;
76477;SDS011;65309;49.790;18.972;2023-05-02T11:18:58;11.38;;;6.85;;
76477;SDS011;65309;49.790;18.972;2023-05-02T11:29:50;4.70;;;2.65;;
76477;SDS011;65309;49.790;18.972;2023-05-02T11:34:52;10.90;;;6.97;;
76477;SDS011;65309;49.790;18.972;2023-05-02T11:40:10;15.90;;;8.77;;
76477;SDS011;65309;49.790;18.972;2023-05-02T11:45:12;11.80;;;8.10;;
76477;SDS011;65309;49.790;18.972;2023-05-02T11:50:14;27.38;;;17.50;;
76477;SDS011;65309;49.790;18.972;2023-05-02T11:55:18;48.47;;;32.03;;
76477;SDS011;65309;49.790;18.972;2023-05-02T12:00:25;37.17;;;25.65;;
76477;SDS011;65309;49.790;18.972;2023-05-02T12:05:28;6.22;;;3.72;;
76477;SDS011;65309;49.790;18.972;2023-05-02T12:10:35;5.80;;;5.03;;
76477;SDS011;65309;49.790;18.972;2023-05-02T12:15:38;5.05;;;3.17;;
76477;SDS011;65309;49.790;18.972;2023-05-02T12:20:41;21.45;;;15.30;;
76477;SDS011;65309;49.790;18.972;2023-05-02T12:26:16;64.10;;;35.75;;
76477;SDS011;65309;49.790;18.972;2023-05-02T12:31:18;9.52;;;6.47;;
76477;SDS011;65309;49.790;18.972;2023-05-02T12:36:21;4.93;;;3.08;;
76477;SDS011;65309;49.790;18.972;2023-05-02T12:41:31;7.97;;;4.72;;
76477;SDS011;65309;49.790;18.972;2023-05-02T12:46:34;8.25;;;4.97;;
76477;SDS011;65309;49.790;18.972;2023-05-02T12:51:37;8.48;;;4.35;;
76477;SDS011;65309;49.790;18.972;2023-05-02T12:56:41;4.05;;;2.60;;
76477;SDS011;65309;49.790;18.972;2023-05-02T13:01:44;5.43;;;3.13;;
76477;SDS011;65309;49.790;18.972;2023-05-02T13:06:46;4.65;;;4.00;;
76477;SDS011;65309;49.790;18.972;2023-05-02T13:16:55;5.90;;;3.28;;
76477;SDS011;65309;49.790;18.972;2023-05-02T13:21:58;3.45;;;2.10;;
76477;SDS011;65309;49.790;18.972;2023-05-02T13:32:03;6.95;;;4.80;;
76477;SDS011;65309;49.790;18.972;2023-05-02T13:37:06;6.38;;;4.78;;
76477;SDS011;65309;49.790;18.972;2023-05-02T13:42:09;6.68;;;4.78;;
76477;SDS011;65309;49.790;18.972;2023-05-02T13:47:11;5.43;;;3.58;;
76477;SDS011;65309;49.790;18.972;2023-05-02T13:52:13;9.70;;;5.45;;
76477;SDS011;65309;49.790;18.972;2023-05-02T13:57:16;9.13;;;5.65;;
76477;SDS011;65309;49.790;18.972;2023-05-02T14:02:19;8.13;;;5.72;;
76477;SDS011;65309;49.790;18.972;2023-05-02T14:07:21;10.05;;;7.38;;
76477;SDS011;65309;49.790;18.972;2023-05-02T14:12:25;9.02;;;6.78;;
76477;SDS011;65309;49.790;18.972;2023-05-02T14:17:27;10.20;;;7.55;;
76477;SDS011;65309;49.790;18.972;2023-05-02T14:22:30;12.35;;;8.10;;
76477;SDS011;65309;49.790;18.972;2023-05-02T14:27:34;11.18;;;8.70;;
76477;SDS011;65309;49.790;18.972;2023-05-02T14:32:37;21.67;;;12.05;;
76477;SDS011;65309;49.790;18.972;2023-05-02T14:37:39;9.40;;;7.82;;
76477;SDS011;65309;49.790;18.972;2023-05-02T14:47:44;11.98;;;7.43;;
76477;SDS011;65309;49.790;18.972;2023-05-02T14:52:47;10.85;;;7.78;;
76477;SDS011;65309;49.790;18.972;2023-05-02T14:57:51;10.30;;;8.45;;
76477;SDS011;65309;49.790;18.972;2023-05-02T15:02:53;17.25;;;9.38;;
76477;SDS011;65309;49.790;18.972;2023-05-02T15:07:55;12.98;;;8.05;;
76477;SDS011;65309;49.790;18.972;2023-05-02T15:12:59;12.93;;;8.95;;
76477;SDS011;65309;49.790;18.972;2023-05-02T15:18:01;4.15;;;3.47;;
76477;SDS011;65309;49.790;18.972;2023-05-02T15:23:03;13.40;;;6.93;;
76477;SDS011;65309;49.790;18.972;2023-05-02T15:28:06;11.50;;;7.07;;
76477;SDS011;65309;49.790;18.972;2023-05-02T15:33:08;13.27;;;8.05;;
76477;SDS011;65309;49.790;18.972;2023-05-02T15:38:11;12.32;;;7.57;;
76477;SDS011;65309;49.790;18.972;2023-05-02T15:43:14;14.55;;;8.80;;
76477;SDS011;65309;49.790;18.972;2023-05-02T15:48:19;10.88;;;7.05;;
76477;SDS011;65309;49.790;18.972;2023-05-02T15:53:21;11.45;;;7.47;;
76477;SDS011;65309;49.790;18.972;2023-05-02T15:58:25;10.27;;;6.65;;
76477;SDS011;65309;49.790;18.972;2023-05-02T16:03:27;10.05;;;6.40;;
76477;SDS011;65309;49.790;18.972;2023-05-02T16:08:29;10.38;;;8.13;;
76477;SDS011;65309;49.790;18.972;2023-05-02T16:13:32;11.32;;;7.13;;
76477;SDS011;65309;49.790;18.972;2023-05-02T16:18:35;11.52;;;5.93;;
76477;SDS011;65309;49.790;18.972;2023-05-02T16:23:37;8.38;;;5.90;;
76477;SDS011;65309;49.790;18.972;2023-05-02T16:28:40;10.15;;;6.05;;
76477;SDS011;65309;49.790;18.972;2023-05-02T16:33:42;7.97;;;5.80;;
76477;SDS011;65309;49.790;18.972;2023-05-02T16:38:44;7.30;;;5.85;;
76477;SDS011;65309;49.790;18.972;2023-05-02T16:43:49;8.73;;;6.25;;
76477;SDS011;65309;49.790;18.972;2023-05-02T16:48:51;8.57;;;5.32;;
76477;SDS011;65309;49.790;18.972;2023-05-02T16:53:53;7.15;;;4.25;;
76477;SDS011;65309;49.790;18.972;2023-05-02T16:58:57;7.32;;;5.05;;
76477;SDS011;65309;49.790;18.972;2023-05-02T17:03:59;7.72;;;4.57;;
76477;SDS011;65309;49.790;18.972;2023-05-02T17:09:01;7.18;;;4.43;;
76477;SDS011;65309;49.790;18.972;2023-05-02T17:14:05;6.40;;;5.13;;
76477;SDS011;65309;49.790;18.972;2023-05-02T17:19:07;8.10;;;5.43;;
76477;SDS011;65309;49.790;18.972;2023-05-02T17:24:09;6.75;;;5.18;;
76477;SDS011;65309;49.790;18.972;2023-05-02T17:29:13;5.43;;;4.47;;
76477;SDS011;65309;49.790;18.972;2023-05-02T17:34:15;8.23;;;5.20;;
76477;SDS011;65309;49.790;18.972;2023-05-02T17:39:17;7.55;;;4.32;;
76477;SDS011;65309;49.790;18.972;2023-05-02T17:44:21;8.38;;;5.60;;
76477;SDS011;65309;49.790;18.972;2023-05-02T17:49:23;67.18;;;30.55;;
76477;SDS011;65309;49.790;18.972;2023-05-02T17:54:25;21.15;;;9.25;;
76477;SDS011;65309;49.790;18.972;2023-05-02T17:59:28;12.55;;;5.80;;
76477;SDS011;65309;49.790;18.972;2023-05-02T18:04:30;9.45;;;6.80;;
76477;SDS011;65309;49.790;18.972;2023-05-02T18:09:32;8.77;;;6.35;;
76477;SDS011;65309;49.790;18.972;2023-05-02T18:14:36;11.30;;;8.15;;
76477;SDS011;65309;49.790;18.972;2023-05-02T18:19:37;14.38;;;7.88;;
76477;SDS011;65309;49.790;18.972;2023-05-02T18:24:39;9.57;;;5.80;;
76477;SDS011;65309;49.790;18.972;2023-05-02T18:29:43;9.60;;;6.57;;
76477;SDS011;65309;49.790;18.972;2023-05-02T18:34:45;6.35;;;4.60;;
76477;SDS011;65309;49.790;18.972;2023-05-02T18:39:48;8.80;;;7.13;;
76477;SDS011;65309;49.790;18.972;2023-05-02T18:44:52;8.18;;;5.63;;
76477;SDS011;65309;49.790;18.972;2023-05-02T18:49:54;8.63;;;5.60;;
76477;SDS011;65309;49.790;18.972;2023-05-02T18:55:00;14.80;;;9.15;;
76477;SDS011;65309;49.790;18.972;2023-05-02T19:00:06;14.57;;;10.38;;
76477;SDS011;65309;49.790;18.972;2023-05-02T19:05:09;10.05;;;6.10;;
76477;SDS011;65309;49.790;18.972;2023-05-02T19:10:11;8.23;;;5.03;;
76477;SDS011;65309;49.790;18.972;2023-05-02T19:15:14;6.25;;;4.53;;
76477;SDS011;65309;49.790;18.972;2023-05-02T19:20:17;6.38;;;4.78;;
76477;SDS011;65309;49.790;18.972;2023-05-02T19:25:19;10.25;;;6.07;;
76477;SDS011;65309;49.790;18.972;2023-05-02T19:30:23;11.13;;;6.65;;
76477;SDS011;65309;49.790;18.972;2023-05-02T19:35:25;10.48;;;6.07;;
76477;SDS011;65309;49.790;18.972;2023-05-02T19:50:33;5.93;;;4.90;;
76477;SDS011;65309;49.790;18.972;2023-05-02T19:55:36;12.45;;;6.70;;
76477;SDS011;65309;49.790;18.972;2023-05-02T20:00:39;9.57;;;6.40;;
76477;SDS011;65309;49.790;18.972;2023-05-02T20:05:44;10.80;;;6.43;;
76477;SDS011;65309;49.790;18.972;2023-05-02T20:10:46;16.50;;;8.82;;
76477;SDS011;65309;49.790;18.972;2023-05-02T20:15:50;11.90;;;7.07;;
76477;SDS011;65309;49.790;18.972;2023-05-02T20:20:53;12.25;;;8.50;;
76477;SDS011;65309;49.790;18.972;2023-05-02T20:25:55;16.10;;;10.45;;
76477;SDS011;65309;49.790;18.972;2023-05-02T20:30:59;15.45;;;10.43;;
76477;SDS011;65309;49.790;18.972;2023-05-02T20:36:02;19.17;;;11.43;;
76477;SDS011;65309;49.790;18.972;2023-05-02T20:41:04;18.77;;;11.15;;
76477;SDS011;65309;49.790;18.972;2023-05-02T20:46:13;19.33;;;11.27;;
76477;SDS011;65309;49.790;18.972;2023-05-02T20:51:17;28.13;;;15.38;;
76477;SDS011;65309;49.790;18.972;2023-05-02T20:56:19;26.55;;;15.13;;
76477;SDS011;65309;49.790;18.972;2023-05-02T21:01:23;35.90;;;20.90;;
76477;SDS011;65309;49.790;18.972;2023-05-02T21:06:26;36.38;;;17.52;;
76477;SDS011;65309;49.790;18.972;2023-05-02T21:11:28;19.90;;;12.50;;
76477;SDS011;65309;49.790;18.972;2023-05-02T21:16:31;19.13;;;11.98;;
76477;SDS011;65309;49.790;18.972;2023-05-02T21:21:33;14.55;;;8.82;;
76477;SDS011;65309;49.790;18.972;2023-05-02T21:26:35;16.73;;;10.98;;
76477;SDS011;65309;49.790;18.972;2023-05-02T21:31:39;17.40;;;9.90;;
76477;SDS011;65309;49.790;18.972;2023-05-02T21:36:41;18.98;;;11.35;;
76477;SDS011;65309;49.790;18.972;2023-05-02T21:41:43;24.27;;;13.90;;
76477;SDS011;65309;49.790;18.972;2023-05-02T21:46:47;12.65;;;9.23;;
76477;SDS011;65309;49.790;18.972;2023-05-02T21:51:49;14.40;;;9.98;;
76477;SDS011;65309;49.790;18.972;2023-05-02T21:56:51;14.45;;;9.13;;
76477;SDS011;65309;49.790;18.972;2023-05-02T22:01:55;17.05;;;11.43;;
76477;SDS011;65309;49.790;18.972;2023-05-02T22:06:57;20.67;;;12.85;;
76477;SDS011;65309;49.790;18.972;2023-05-02T22:12:00;15.73;;;9.48;;
76477;SDS011;65309;49.790;18.972;2023-05-02T22:17:03;12.52;;;8.20;;
76477;SDS011;65309;49.790;18.972;2023-05-02T22:22:05;14.60;;;8.68;;
76477;SDS011;65309;49.790;18.972;2023-05-02T22:27:07;18.98;;;10.05;;
76477;SDS011;65309;49.790;18.972;2023-05-02T22:32:11;15.55;;;9.25;;
76477;SDS011;65309;49.790;18.972;2023-05-02T22:37:13;13.60;;;8.48;;
76477;SDS011;65309;49.790;18.972;2023-05-02T22:42:15;14.52;;;9.70;;
76477;SDS011;65309;49.790;18.972;2023-05-02T22:47:18;14.85;;;8.88;;
76477;SDS011;65309;49.790;18.972;2023-05-02T22:52:21;12.63;;;9.73;;
76477;SDS011;65309;49.790;18.972;2023-05-02T22:57:23;14.05;;;10.43;;
76477;SDS011;65309;49.790;18.972;2023-05-02T23:02:27;13.45;;;10.13;;
76477;SDS011;65309;49.790;18.972;2023-05-02T23:07:29;15.18;;;9.73;;
76477;SDS011;65309;49.790;18.972;2023-05-02T23:17:36;10.75;;;6.35;;
76477;SDS011;65309;49.790;18.972;2023-05-02T23:22:42;10.48;;;6.50;;
76477;SDS011;65309;49.790;18.972;2023-05-02T23:27:44;9.95;;;5.95;;
76477;SDS011;65309;49.790;18.972;2023-05-02T23:32:48;8.45;;;6.18;;
76477;SDS011;65309;49.790;18.972;2023-05-02T23:37:50;15.63;;;6.70;;
76477;SDS011;65309;49.790;18.972;2023-05-02T23:42:53;14.07;;;6.50;;
76477;SDS011;65309;49.790;18.972;2023-05-02T23:47:56;15.57;;;6.32;;
76477;SDS011;65309;49.790;18.972;2023-05-02T23:52:58;10.88;;;6.55;;
76477;SDS011;65309;49.790;18.972;2023-05-02T23:58:00;9.00;;;6.18;;
